Time;durP1;ratioP1;P1;durP2;ratioP2;P2;SDS_P1;SDS_P2;PMS_P1;PMS_P2;Temp;Humidity;BMP_temperature;BMP_pressure;BME280_temperature;BME280_humidity;BME280_pressure;Samples;Min_cycle;Max_cycle;Signal;HPM_P1;HPM_P2
2022/10/01 00:01:55;;;;;;;15.45;4.93;;;16.00;73.90;;;;;;5054955;28;20028;-74
2022/10/01 00:04:21;;;;;;;13.30;4.60;;;16.00;73.90;;;;;;5040064;28;20031;-73
2022/10/01 00:06:47;;;;;;;12.35;3.38;;;16.00;74.00;;;;;;5058454;28;20035;-74
2022/10/01 00:09:13;;;;;;;16.55;3.90;;;16.00;74.00;;;;;;5048282;28;20045;-74
2022/10/01 00:11:40;;;;;;;15.05;3.47;;;16.00;74.00;;;;;;5047208;28;20021;-74
2022/10/01 00:14:07;;;;;;;14.40;3.55;;;15.90;73.90;;;;;;5057094;28;20083;-73
2022/10/01 00:16:36;;;;;;;12.73;3.22;;;15.90;73.90;;;;;;5047264;28;20025;-73
2022/10/01 00:19:02;;;;;;;10.90;3.10;;;15.90;73.90;;;;;;5046552;28;20033;-74
2022/10/01 00:21:30;;;;;;;13.32;4.10;;;15.80;73.70;;;;;;5044046;28;20021;-74
2022/10/01 00:24:03;;;;;;;10.85;3.92;;;15.90;73.90;;;;;;5049752;28;20037;-75
2022/10/01 00:26:34;;;;;;;9.68;3.28;;;15.90;74.00;;;;;;5047351;28;20028;-73
2022/10/01 00:29:04;;;;;;;13.05;3.85;;;15.90;74.00;;;;;;5047138;28;20029;-74
2022/10/01 00:31:30;;;;;;;9.63;2.58;;;15.80;73.80;;;;;;5039163;28;20037;-74
2022/10/01 00:33:59;;;;;;;12.50;3.35;;;15.80;73.80;;;;;;5052779;28;20044;-75
2022/10/01 00:36:25;;;;;;;12.00;3.63;;;15.80;73.80;;;;;;5051682;28;20047;-74
2022/10/01 00:38:52;;;;;;;13.18;4.65;;;15.80;73.80;;;;;;5051710;28;20032;-75
2022/10/01 00:41:18;;;;;;;15.30;5.20;;;15.80;73.80;;;;;;5047819;28;20082;-75
2022/10/01 00:43:53;;;;;;;10.20;3.10;;;15.80;73.80;;;;;;5056307;28;20485;-73
2022/10/01 00:46:22;;;;;;;10.85;2.95;;;15.80;73.80;;;;;;5054855;28;20037;-74
2022/10/01 00:48:58;;;;;;;11.95;2.47;;;15.80;73.80;;;;;;5047114;28;20746;-73
2022/10/01 00:51:29;;;;;;;15.05;3.70;;;15.70;73.60;;;;;;5044892;28;20430;-73
2022/10/01 00:54:01;;;;;;;14.20;3.42;;;15.70;73.60;;;;;;5047693;28;20021;-74
2022/10/01 00:56:29;;;;;;;13.25;3.78;;;15.70;73.60;;;;;;5022661;28;20075;-74
2022/10/01 00:58:57;;;;;;;15.45;3.58;;;15.70;73.60;;;;;;5042030;28;20033;-73
2022/10/01 01:01:24;;;;;;;13.05;2.92;;;15.60;73.50;;;;;;5050769;28;20028;-73
2022/10/01 01:03:50;;;;;;;12.75;3.10;;;15.60;73.50;;;;;;5044544;28;20021;-73
2022/10/01 01:06:16;;;;;;;9.27;3.60;;;15.60;73.50;;;;;;5045986;28;20040;-73
2022/10/01 01:08:42;;;;;;;13.73;2.53;;;15.60;73.60;;;;;;5058898;28;20565;-74
2022/10/01 01:11:29;;;;;;;8.68;2.83;;;15.60;73.60;;;;;;5047865;28;20045;-74
2022/10/01 01:14:21;;;;;;;11.25;2.42;;;15.50;73.60;;;;;;5056401;28;20033;-73
2022/10/01 01:17:00;;;;;;;12.68;3.55;;;15.50;73.50;;;;;;5056310;28;20017;-73
2022/10/01 01:19:57;;;;;;;12.35;3.05;;;15.50;73.60;;;;;;5037080;28;20331;-74
2022/10/01 01:22:25;;;;;;;12.50;3.17;;;15.50;73.60;;;;;;5042467;28;20395;-72
2022/10/01 01:24:58;;;;;;;11.95;2.88;;;15.40;73.40;;;;;;5054157;28;20039;-75
2022/10/01 01:28:04;;;;;;;12.27;3.63;;;15.40;73.50;;;;;;5055557;28;20040;-75
2022/10/01 01:30:31;;;;;;;11.10;3.90;;;15.40;73.60;;;;;;5036660;28;20045;-74
2022/10/01 01:33:11;;;;;;;12.55;2.65;;;15.40;73.50;;;;;;5057260;28;20090;-73
2022/10/01 01:35:47;;;;;;;14.95;3.88;;;15.30;73.50;;;;;;5047014;28;20058;-72
2022/10/01 01:38:19;;;;;;;11.15;3.00;;;15.40;73.60;;;;;;5057309;28;20032;-74
2022/10/01 01:40:50;;;;;;;13.63;3.17;;;15.40;73.70;;;;;;5046766;28;20029;-74
2022/10/01 01:43:22;;;;;;;8.30;2.53;;;15.40;73.70;;;;;;5047235;28;20032;-75
2022/10/01 01:45:51;;;;;;;11.10;2.92;;;15.40;73.70;;;;;;5055865;28;20017;-75
2022/10/01 01:48:17;;;;;;;11.68;2.22;;;15.40;73.70;;;;;;5050243;28;20049;-75
2022/10/01 01:50:51;;;;;;;15.13;4.38;;;15.30;73.50;;;;;;5048123;28;20045;-76
2022/10/01 01:53:19;;;;;;;14.52;3.03;;;15.40;73.70;;;;;;5052769;28;20025;-75
2022/10/01 01:55:48;;;;;;;16.88;3.63;;;15.40;73.70;;;;;;5052659;28;20049;-76
2022/10/01 01:58:17;;;;;;;17.20;3.55;;;15.40;73.70;;;;;;5035783;28;20058;-75
2022/10/01 02:00:45;;;;;;;12.80;3.05;;;15.40;73.70;;;;;;5054521;28;20041;-75
2022/10/01 02:03:11;;;;;;;10.00;2.75;;;15.40;73.70;;;;;;5055940;28;20036;-75
2022/10/01 02:05:51;;;;;;;10.55;2.50;;;15.30;73.60;;;;;;5054169;28;20036;-74
2022/10/01 02:08:38;;;;;;;9.35;2.63;;;15.30;73.60;;;;;;5042549;28;20029;-74
2022/10/01 02:11:27;;;;;;;10.70;2.30;;;15.30;73.70;;;;;;5051161;28;20139;-75
2022/10/01 02:14:10;;;;;;;13.80;3.95;;;15.30;73.70;;;;;;5053176;28;20171;-74
2022/10/01 02:17:02;;;;;;;11.55;3.10;;;15.30;73.70;;;;;;5048216;28;20037;-75
2022/10/01 02:19:43;;;;;;;9.35;2.28;;;15.30;73.60;;;;;;5044178;28;20029;-73
2022/10/01 02:22:16;;;;;;;10.32;2.58;;;15.30;73.70;;;;;;5053092;28;20033;-74
2022/10/01 02:24:59;;;;;;;10.95;2.75;;;15.30;73.70;;;;;;5051396;28;20457;-74
2022/10/01 02:27:35;;;;;;;7.63;1.95;;;15.30;73.70;;;;;;5068648;28;20175;-73
2022/10/01 02:30:06;;;;;;;14.73;3.58;;;15.30;73.80;;;;;;5055837;28;20037;-74
2022/10/01 02:32:36;;;;;;;7.57;2.42;;;15.30;73.80;;;;;;5056931;28;20025;-74
2022/10/01 02:35:05;;;;;;;11.60;2.60;;;15.30;73.80;;;;;;5052903;28;20706;-74
2022/10/01 02:37:32;;;;;;;9.40;2.10;;;15.30;73.80;;;;;;5062126;28;20041;-73
2022/10/01 02:40:01;;;;;;;10.63;2.63;;;15.30;73.80;;;;;;5064975;28;20496;-73
2022/10/01 02:42:28;;;;;;;10.63;2.22;;;15.30;73.80;;;;;;5058460;28;20021;-74
2022/10/01 02:45:01;;;;;;;11.52;2.28;;;15.30;73.80;;;;;;5052662;28;20029;-73
2022/10/01 02:47:40;;;;;;;12.40;2.58;;;15.40;74.00;;;;;;5047270;28;20039;-73
2022/10/01 02:50:07;;;;;;;9.85;2.35;;;15.30;73.90;;;;;;5038920;28;20479;-73
2022/10/01 02:52:50;;;;;;;11.38;2.90;;;15.40;74.00;;;;;;5052901;28;20040;-74
2022/10/01 02:55:27;;;;;;;14.82;3.88;;;15.40;74.10;;;;;;5044913;28;20048;-75
2022/10/01 02:57:54;;;;;;;11.00;2.67;;;15.40;74.00;;;;;;5053549;28;20040;-75
2022/10/01 03:00:20;;;;;;;10.38;2.55;;;15.40;73.90;;;;;;5051725;28;20033;-74
2022/10/01 03:02:49;;;;;;;7.50;2.25;;;15.40;73.90;;;;;;5059787;28;20031;-74
2022/10/01 03:05:19;;;;;;;17.73;4.25;;;15.40;74.00;;;;;;5046194;28;20342;-74
2022/10/01 03:07:46;;;;;;;14.60;3.83;;;15.30;73.80;;;;;;5053567;28;20041;-74
2022/10/01 03:10:12;;;;;;;10.40;2.30;;;15.40;74.00;;;;;;5052062;28;20049;-74
2022/10/01 03:12:43;;;;;;;12.10;3.17;;;15.30;73.80;;;;;;5047423;28;20079;-75
2022/10/01 03:15:11;;;;;;;16.17;3.45;;;15.30;73.90;;;;;;5049186;28;20033;-74
2022/10/01 03:17:37;;;;;;;14.20;4.72;;;15.30;73.90;;;;;;5046688;28;20029;-74
2022/10/01 03:20:05;;;;;;;10.43;2.00;;;15.30;73.90;;;;;;5048608;28;20136;-74
2022/10/01 03:22:32;;;;;;;10.40;2.10;;;15.40;74.10;;;;;;5057755;28;20025;-73
2022/10/01 03:24:58;;;;;;;7.10;1.90;;;15.30;73.90;;;;;;5067943;28;20032;-74
2022/10/01 03:27:24;;;;;;;12.63;2.00;;;15.30;74.00;;;;;;5060378;28;20025;-74
2022/10/01 03:29:50;;;;;;;6.80;2.30;;;15.30;74.00;;;;;;5056331;28;20045;-73
2022/10/01 03:32:16;;;;;;;13.18;3.08;;;15.30;74.00;;;;;;5052521;28;20025;-73
2022/10/01 03:34:42;;;;;;;8.90;3.47;;;15.30;74.00;;;;;;5053525;28;20039;-75
2022/10/01 03:37:08;;;;;;;8.43;2.13;;;15.30;74.00;;;;;;5044206;28;20033;-74
2022/10/01 03:39:35;;;;;;;13.98;3.22;;;15.30;74.00;;;;;;5053690;28;20040;-75
2022/10/01 03:42:04;;;;;;;12.43;3.08;;;15.30;74.00;;;;;;5053995;28;20050;-73
2022/10/01 03:44:31;;;;;;;12.05;2.05;;;15.30;74.00;;;;;;5066503;28;20033;-74
2022/10/01 03:46:57;;;;;;;11.35;2.70;;;15.30;74.50;;;;;;5055054;28;20032;-74
2022/10/01 03:49:23;;;;;;;9.02;2.60;;;15.30;74.00;;;;;;5047873;28;20586;-74
2022/10/01 03:51:49;;;;;;;7.90;2.00;;;15.30;73.90;;;;;;5052430;28;20025;-76
2022/10/01 03:54:16;;;;;;;8.25;1.80;;;15.30;74.00;;;;;;5052229;28;20048;-74
2022/10/01 03:56:42;;;;;;;14.40;2.80;;;15.30;73.90;;;;;;5047440;28;20062;-73
2022/10/01 03:59:09;;;;;;;11.23;2.22;;;15.30;73.90;;;;;;5061636;28;20071;-75
2022/10/01 04:01:36;;;;;;;11.93;3.58;;;15.30;73.90;;;;;;5065840;28;20558;-74
2022/10/01 04:04:02;;;;;;;11.70;3.70;;;15.30;73.90;;;;;;5057277;28;20073;-74
2022/10/01 04:06:29;;;;;;;12.20;2.40;;;15.30;73.90;;;;;;5034500;28;20029;-74
2022/10/01 04:08:55;;;;;;;15.85;3.65;;;15.30;73.90;;;;;;5058962;28;20043;-74
2022/10/01 04:11:21;;;;;;;10.57;3.50;;;15.30;73.90;;;;;;5054399;28;20049;-74
2022/10/01 04:13:47;;;;;;;12.93;2.63;;;15.30;73.90;;;;;;5053327;28;20029;-74
2022/10/01 04:16:14;;;;;;;13.57;3.95;;;15.30;73.90;;;;;;5051931;28;20044;-74
2022/10/01 04:18:41;;;;;;;14.63;3.97;;;15.30;74.00;;;;;;5042773;28;20040;-74
2022/10/01 04:21:08;;;;;;;8.93;3.03;;;15.30;74.50;;;;;;5049998;28;20033;-74
2022/10/01 04:23:34;;;;;;;11.38;2.40;;;15.30;74.00;;;;;;5054040;28;20031;-75
2022/10/01 04:26:04;;;;;;;12.73;3.83;;;15.30;74.00;;;;;;5064826;28;20039;-73
2022/10/01 04:28:31;;;;;;;9.43;3.13;;;15.30;74.00;;;;;;5063313;28;20032;-74
2022/10/01 04:33:41;;;;;;;9.50;2.10;;;15.40;74.20;;;;;;5065598;28;20038;-74
2022/10/01 04:36:07;;;;;;;9.13;2.47;;;15.30;74.10;;;;;;5052222;28;20096;-73
2022/10/01 04:38:33;;;;;;;9.57;2.40;;;15.40;74.30;;;;;;5053795;28;20044;-74
2022/10/01 04:40:59;;;;;;;12.13;2.92;;;15.30;74.10;;;;;;5062670;28;20056;-73
2022/10/01 04:43:25;;;;;;;12.73;2.67;;;15.40;74.30;;;;;;5049592;28;20041;-73
2022/10/01 04:45:51;;;;;;;13.48;3.35;;;15.40;74.30;;;;;;5051257;28;20370;-73
2022/10/01 04:48:17;;;;;;;10.93;2.75;;;15.50;74.50;;;;;;5046792;28;20175;-74
2022/10/01 04:50:43;;;;;;;8.10;2.83;;;15.50;74.50;;;;;;5048088;28;20942;-73
2022/10/01 04:53:09;;;;;;;11.77;3.05;;;15.50;74.50;;;;;;5052105;28;20048;-74
2022/10/01 04:55:35;;;;;;;7.18;2.15;;;15.50;74.40;;;;;;5047598;28;20060;-74
2022/10/01 04:58:01;;;;;;;8.55;2.25;;;15.50;74.40;;;;;;5049117;28;20025;-74
2022/10/01 05:00:27;;;;;;;9.55;2.70;;;15.50;74.40;;;;;;5048579;28;20039;-75
2022/10/01 05:02:54;;;;;;;9.82;2.30;;;15.60;74.60;;;;;;5052763;28;20057;-74
2022/10/01 05:05:23;;;;;;;9.15;2.30;;;15.60;74.60;;;;;;5037383;28;20033;-74
2022/10/01 05:07:50;;;;;;;11.07;3.28;;;15.60;74.50;;;;;;5047867;28;20045;-78
2022/10/01 05:10:19;;;;;;;9.13;2.55;;;15.60;74.50;;;;;;5051448;28;20488;-76
2022/10/01 05:12:46;;;;;;;12.20;3.10;;;15.60;74.50;;;;;;5050819;28;20680;-75
2022/10/01 05:15:14;;;;;;;9.80;3.45;;;15.60;74.40;;;;;;5044254;28;20336;-76
2022/10/01 05:17:40;;;;;;;14.63;2.95;;;15.60;74.40;;;;;;5053169;28;20021;-76
2022/10/01 05:20:07;;;;;;;10.27;2.30;;;15.60;74.40;;;;;;5045931;28;20275;-75
2022/10/01 05:22:33;;;;;;;8.45;2.75;;;15.70;74.60;;;;;;5050000;28;20039;-75
2022/10/01 05:24:59;;;;;;;13.63;2.63;;;15.70;74.50;;;;;;5046808;28;20025;-74
2022/10/01 05:27:26;;;;;;;12.07;3.03;;;15.70;74.40;;;;;;5045977;28;20029;-75
2022/10/01 05:29:53;;;;;;;8.35;2.83;;;15.70;74.40;;;;;;5053854;28;20025;-74
2022/10/01 05:32:19;;;;;;;13.65;4.22;;;15.70;74.30;;;;;;5045621;28;20074;-76
2022/10/01 05:34:45;;;;;;;9.88;2.40;;;15.70;74.30;;;;;;5047054;28;20576;-75
2022/10/01 05:37:11;;;;;;;10.68;3.67;;;15.70;74.30;;;;;;5052397;28;20056;-77
2022/10/01 05:39:37;;;;;;;11.77;3.55;;;15.70;74.20;;;;;;5046077;28;20399;-74
2022/10/01 05:42:03;;;;;;;13.40;3.50;;;15.70;74.20;;;;;;5046077;28;20278;-76
2022/10/01 05:44:36;;;;;;;10.02;3.13;;;15.60;73.90;;;;;;5046839;28;20041;-74
2022/10/01 05:47:03;;;;;;;;;;;15.60;74.00;;;;;;5059673;28;20650;-75
2022/10/01 05:49:29;;;;;;;12.05;2.53;;;15.60;73.90;;;;;;5037765;28;20443;-75
2022/10/01 05:51:55;;;;;;;12.63;3.13;;;15.60;73.80;;;;;;5044967;28;20029;-77
2022/10/01 05:54:23;;;;;;;14.15;2.80;;;15.60;73.80;;;;;;5044537;28;20130;-76
2022/10/01 05:56:49;;;;;;;11.20;2.92;;;15.50;73.70;;;;;;5054963;28;20450;-77
2022/10/01 05:59:16;;;;;;;13.32;3.05;;;15.60;73.80;;;;;;5045049;28;20079;-76
2022/10/01 06:01:45;;;;;;;11.75;2.47;;;15.50;73.70;;;;;;5054308;28;20458;-75
2022/10/01 06:04:11;;;;;;;13.45;2.70;;;15.50;73.70;;;;;;5041594;28;20036;-77
2022/10/01 06:06:37;;;;;;;10.68;3.00;;;15.40;73.50;;;;;;5054685;28;20504;-79
2022/10/01 06:09:04;;;;;;;13.82;4.32;;;15.40;73.50;;;;;;5049646;28;20021;-75
2022/10/01 06:11:30;;;;;;;10.30;2.50;;;15.40;73.50;;;;;;5053629;28;20025;-76
2022/10/01 06:13:57;;;;;;;16.20;3.55;;;15.40;73.60;;;;;;5055631;28;20099;-75
2022/10/01 06:16:25;;;;;;;9.90;2.30;;;15.40;73.70;;;;;;5041067;28;20044;-79
2022/10/01 06:18:56;;;;;;;13.55;2.33;;;15.40;73.70;;;;;;5042668;28;20036;-77
2022/10/01 06:21:26;;;;;;;9.93;2.60;;;15.50;73.80;;;;;;5040264;28;20041;-79
2022/10/01 06:23:53;;;;;;;13.98;2.58;;;15.40;73.60;;;;;;5046600;28;20051;-79
2022/10/01 06:26:20;;;;;;;15.25;3.15;;;15.40;73.50;;;;;;5044016;28;20055;-79
2022/10/01 06:28:50;;;;;;;13.00;2.80;;;15.40;73.60;;;;;;5048814;28;20051;-78
2022/10/01 06:31:17;;;;;;;13.63;2.92;;;15.40;73.50;;;;;;5048540;28;20036;-75
2022/10/01 06:33:43;;;;;;;9.27;3.20;;;15.40;73.50;;;;;;5049964;28;20032;-76
2022/10/01 06:36:09;;;;;;;11.82;2.88;;;15.40;73.40;;;;;;5032331;28;20151;-80
2022/10/01 06:38:35;;;;;;;15.15;2.53;;;15.40;73.40;;;;;;5049774;28;20052;-77
2022/10/01 06:41:03;;;;;;;11.40;2.97;;;15.40;73.30;;;;;;5049793;28;20040;-76
2022/10/01 06:43:32;;;;;;;13.55;2.50;;;15.40;73.30;;;;;;5055523;28;20041;-79
2022/10/01 06:46:02;;;;;;;13.50;3.00;;;15.40;73.20;;;;;;5045344;28;20030;-79
2022/10/01 06:48:29;;;;;;;15.27;4.38;;;15.40;73.10;;;;;;5032076;28;20033;-79
2022/10/01 06:50:56;;;;;;;17.73;3.58;;;15.50;73.40;;;;;;5046309;28;20041;-80
2022/10/01 06:53:22;;;;;;;13.73;3.15;;;15.50;74.00;;;;;;5038858;28;20036;-81
2022/10/01 06:55:48;;;;;;;10.57;2.63;;;15.60;74.50;;;;;;5052325;28;20049;-79
2022/10/01 06:58:23;;;;;;;12.40;2.60;;;15.80;75.00;;;;;;5048514;28;20033;-77
2022/10/01 07:00:58;;;;;;;10.75;3.08;;;15.80;75.10;;;;;;5052773;28;20128;-78
2022/10/01 07:03:24;;;;;;;11.70;2.38;;;15.90;75.10;;;;;;5052514;28;20037;-79
2022/10/01 07:05:50;;;;;;;12.43;3.15;;;16.00;75.20;;;;;;5057285;28;20086;-77
2022/10/01 07:08:16;;;;;;;10.93;2.53;;;16.00;75.10;;;;;;5047931;28;20480;-77
2022/10/01 07:10:45;;;;;;;11.27;2.92;;;16.10;75.30;;;;;;5049793;28;20117;-75
2022/10/01 07:13:15;;;;;;;12.43;2.45;;;16.10;75.10;;;;;;5062013;28;20027;-76
2022/10/01 07:15:41;;;;;;;10.05;3.40;;;16.10;75.00;;;;;;5045059;28;20055;-76
2022/10/01 07:18:08;;;;;;;16.25;3.35;;;16.20;75.00;;;;;;5032060;28;20033;-77
2022/10/01 07:20:38;;;;;;;10.32;3.85;;;16.20;74.80;;;;;;5021995;28;20044;-77
2022/10/01 07:23:06;;;;;;;16.83;5.13;;;16.20;74.60;;;;;;5043114;28;20032;-76
2022/10/01 07:25:32;;;;;;;8.60;2.75;;;16.30;74.60;;;;;;5058654;28;20464;-77
2022/10/01 07:28:03;;;;;;;13.20;4.22;;;16.30;74.40;;;;;;5046910;28;20024;-77
2022/10/01 07:30:30;;;;;;;12.32;2.92;;;16.30;74.20;;;;;;5040611;28;20041;-77
2022/10/01 07:32:56;;;;;;;13.00;3.85;;;16.30;74.10;;;;;;5049483;28;20032;-84
2022/10/01 07:35:22;;;;;;;13.85;3.83;;;16.40;74.10;;;;;;5051447;28;20043;-75
2022/10/01 07:37:52;;;;;;;12.20;3.15;;;16.40;73.90;;;;;;5034008;28;20037;-76
2022/10/01 07:40:18;;;;;;;10.48;2.78;;;16.50;73.90;;;;;;5046597;28;20059;-76
2022/10/01 07:42:54;;;;;;;13.75;3.20;;;16.50;73.60;;;;;;5035481;28;20037;-76
2022/10/01 07:45:22;;;;;;;10.38;3.00;;;16.60;73.60;;;;;;5051671;28;20913;-76
2022/10/01 07:47:56;;;;;;;14.20;4.18;;;16.70;73.50;;;;;;5046486;28;20043;-75
2022/10/01 07:50:22;;;;;;;14.98;3.45;;;16.80;73.30;;;;;;5042728;28;20053;-75
2022/10/01 07:52:56;;;;;;;15.32;4.75;;;16.90;73.20;;;;;;5052427;28;20443;-75
2022/10/01 07:55:26;;;;;;;10.85;4.38;;;17.00;73.10;;;;;;5049740;28;20065;-75
2022/10/01 07:57:53;;;;;;;12.55;4.72;;;17.00;72.80;;;;;;5046597;28;20029;-74
2022/10/01 08:00:21;;;;;;;11.45;2.70;;;17.10;72.80;;;;;;5040720;28;20032;-75
2022/10/01 08:02:49;;;;;;;10.77;3.22;;;17.10;72.60;;;;;;5044144;28;20036;-74
2022/10/01 08:05:20;;;;;;;8.45;2.70;;;17.10;72.40;;;;;;5047505;28;20043;-75
2022/10/01 08:07:47;;;;;;;9.27;3.10;;;17.10;72.20;;;;;;5041323;28;20048;-75
2022/10/01 08:10:14;;;;;;;14.27;4.13;;;17.10;72.10;;;;;;5050091;28;20461;-76
2022/10/01 08:12:43;;;;;;;20.55;3.85;;;17.10;72.00;;;;;;5048337;28;20231;-76
2022/10/01 08:15:11;;;;;;;11.60;3.95;;;17.00;71.90;;;;;;5046126;28;20025;-75
2022/10/01 08:17:37;;;;;;;14.50;3.10;;;17.00;71.90;;;;;;5047035;28;20039;-76
2022/10/01 08:20:05;;;;;;;8.80;2.70;;;17.00;71.90;;;;;;5047736;28;20099;-76
2022/10/01 08:22:31;;;;;;;11.15;3.17;;;17.00;71.80;;;;;;5050439;28;20032;-76
2022/10/01 08:24:57;;;;;;;12.63;3.63;;;17.00;71.70;;;;;;5047510;28;20021;-76
2022/10/01 08:27:24;;;;;;;14.88;4.65;;;17.00;71.60;;;;;;5052186;28;20028;-75
2022/10/01 08:29:51;;;;;;;12.20;3.65;;;17.10;71.70;;;;;;5051989;28;20094;-76
2022/10/01 08:32:17;;;;;;;9.27;2.47;;;17.10;71.50;;;;;;5053144;28;20032;-75
2022/10/01 08:34:42;;;;;;;9.68;2.97;;;17.20;71.50;;;;;;5046491;28;20037;-76
2022/10/01 08:37:08;;;;;;;10.68;2.47;;;17.20;71.40;;;;;;5047357;28;20060;-76
2022/10/01 08:39:35;;;;;;;9.10;3.00;;;17.30;71.60;;;;;;5046446;28;20029;-75
2022/10/01 08:42:17;;;;;;;12.38;2.88;;;17.30;71.20;;;;;;5042210;28;20047;-75
2022/10/01 08:44:45;;;;;;;12.80;3.22;;;17.40;71.10;;;;;;5045699;28;20017;-77
2022/10/01 08:47:37;;;;;;;9.75;2.65;;;17.60;71.10;;;;;;5046687;28;20033;-75
2022/10/01 08:50:39;;;;;;;9.80;3.00;;;17.70;71.00;;;;;;5042504;28;20041;-76
2022/10/01 08:53:14;;;;;;;9.27;2.78;;;17.80;70.80;;;;;;5039582;28;20037;-76
2022/10/01 08:55:40;;;;;;;9.93;2.80;;;17.90;70.70;;;;;;5041025;28;20044;-76
2022/10/01 08:58:11;;;;;;;11.10;2.60;;;18.10;70.80;;;;;;5052224;28;20029;-75
2022/10/01 09:00:40;;;;;;;10.98;3.20;;;18.20;70.60;;;;;;5047813;28;20105;-76
2022/10/01 09:03:11;;;;;;;10.40;3.00;;;18.30;70.40;;;;;;5051850;28;20036;-76
2022/10/01 09:05:40;;;;;;;11.55;3.67;;;18.50;70.50;;;;;;5046438;28;20047;-75
2022/10/01 09:08:24;;;;;;;12.35;3.03;;;18.50;70.20;;;;;;5029752;28;20032;-75
2022/10/01 09:10:50;;;;;;;13.73;3.65;;;18.70;70.30;;;;;;5039871;28;20049;-76
2022/10/01 09:13:56;;;;;;;11.85;3.75;;;18.80;70.20;;;;;;5048960;28;20025;-76
2022/10/01 09:16:40;;;;;;;10.90;3.10;;;18.90;70.50;;;;;;5048548;28;20105;-76
2022/10/01 09:19:36;;;;;;;14.82;3.60;;;18.90;69.90;;;;;;5041924;28;20051;-75
2022/10/01 09:22:15;;;;;;;13.88;3.13;;;19.10;70.00;;;;;;5051919;28;20029;-77
2022/10/01 09:24:46;;;;;;;11.10;3.45;;;19.10;69.70;;;;;;5053022;28;20070;-76
2022/10/01 09:27:18;;;;;;;12.98;2.78;;;19.20;69.70;;;;;;5051929;28;20396;-75
2022/10/01 09:29:52;;;;;;;11.80;3.20;;;19.30;69.60;;;;;;5046039;28;20051;-76
2022/10/01 09:32:23;;;;;;;13.93;3.35;;;19.40;69.60;;;;;;5050647;28;20029;-75
2022/10/01 09:34:50;;;;;;;12.48;2.85;;;19.50;69.40;;;;;;5045376;28;20389;-75
2022/10/01 09:37:42;;;;;;;11.98;3.60;;;19.60;69.80;;;;;;5049493;28;20025;-76
2022/10/01 09:40:19;;;;;;;11.38;2.50;;;19.80;69.30;;;;;;5049740;28;20128;-76
2022/10/01 09:42:46;;;;;;;9.75;2.75;;;19.90;69.10;;;;;;5040740;28;20438;-76
2022/10/01 09:45:14;;;;;;;13.10;4.45;;;20.00;69.00;;;;;;5048637;28;20041;-76
2022/10/01 09:47:44;;;;;;;9.57;3.15;;;20.10;68.80;;;;;;5047921;28;20021;-76
2022/10/01 09:50:15;;;;;;;14.68;3.53;;;20.20;68.60;;;;;;5044772;28;20041;-75
2022/10/01 09:52:47;;;;;;;15.27;3.88;;;20.20;68.20;;;;;;5044408;28;20507;-76
2022/10/01 09:55:35;;;;;;;10.88;3.38;;;20.30;68.20;;;;;;5044834;28;20103;-77
2022/10/01 09:58:08;;;;;;;11.45;3.30;;;20.40;67.90;;;;;;5039088;28;20048;-75
2022/10/01 10:00:37;;;;;;;10.70;2.95;;;20.40;67.80;;;;;;5042675;28;20029;-75
2022/10/01 10:03:03;;;;;;;9.68;3.22;;;20.50;67.80;;;;;;5053964;28;20037;-75
2022/10/01 10:05:42;;;;;;;8.30;3.17;;;20.50;67.60;;;;;;5048272;28;20380;-76
2022/10/01 10:08:30;;;;;;;11.18;3.58;;;20.60;67.40;;;;;;5048105;28;20052;-75
2022/10/01 10:10:59;;;;;;;10.98;2.70;;;20.60;67.20;;;;;;5043017;28;20048;-75
2022/10/01 10:13:34;;;;;;;9.80;3.55;;;20.60;67.10;;;;;;5056813;28;20436;-75
2022/10/01 10:16:28;;;;;;;13.85;3.75;;;20.60;66.90;;;;;;5053888;28;20428;-75
2022/10/01 10:19:01;;;;;;;12.63;3.72;;;20.60;66.60;;;;;;5041537;28;20033;-76
2022/10/01 10:21:33;;;;;;;14.23;4.20;;;20.70;66.80;;;;;;5048257;28;20033;-76
2022/10/01 10:24:01;;;;;;;9.67;4.67;;;20.80;66.60;;;;;;5049868;28;20047;-76
2022/10/01 10:26:37;;;;;;;13.63;3.63;;;20.90;66.50;;;;;;5031699;28;20288;-76
2022/10/01 10:29:23;;;;;;;12.50;4.22;;;21.00;66.30;;;;;;5047417;28;20090;-75
2022/10/01 10:31:50;;;;;;;11.27;3.70;;;21.10;66.20;;;;;;5048228;28;20055;-75
2022/10/01 10:34:39;;;;;;;12.27;3.67;;;21.20;66.10;;;;;;5060882;28;20029;-75
2022/10/01 10:37:15;;;;;;;16.10;4.45;;;21.40;65.80;;;;;;5047936;28;20029;-74
2022/10/01 10:39:52;;;;;;;17.05;5.20;;;21.60;65.80;;;;;;5056421;28;20098;-75
2022/10/01 10:42:21;;;;;;;13.55;4.65;;;21.80;65.70;;;;;;5054730;28;20033;-75
2022/10/01 10:44:48;;;;;;;12.45;4.60;;;22.10;65.70;;;;;;5048977;28;20025;-74
2022/10/01 10:47:17;;;;;;;12.82;4.57;;;22.20;65.40;;;;;;5048379;28;20509;-75
2022/10/01 10:49:53;;;;;;;16.27;5.78;;;22.50;65.50;;;;;;5046111;28;20103;-75
2022/10/01 10:52:31;;;;;;;16.35;5.88;;;22.70;65.30;;;;;;5027929;28;20029;-76
2022/10/01 10:54:59;;;;;;;12.50;6.03;;;22.90;65.20;;;;;;5030410;28;20056;-75
2022/10/01 10:57:27;;;;;;;15.18;6.05;;;23.00;64.90;;;;;;5040162;28;20052;-74
2022/10/01 11:00:06;;;;;;;16.75;7.63;;;23.20;64.80;;;;;;5050702;28;20079;-76
2022/10/01 11:02:33;;;;;;;15.98;6.53;;;23.40;64.60;;;;;;5048857;28;20074;-75
2022/10/01 11:05:16;;;;;;;19.67;5.85;;;23.50;65.10;;;;;;5047581;28;20055;-76
2022/10/01 11:07:46;;;;;;;21.42;7.22;;;23.50;64.00;;;;;;5054397;28;20031;-75
2022/10/01 11:10:35;;;;;;;18.67;5.93;;;23.60;64.00;;;;;;5048804;28;20037;-75
2022/10/01 11:13:24;;;;;;;16.38;6.03;;;23.60;63.70;;;;;;5039182;28;20762;-75
2022/10/01 11:16:03;;;;;;;19.95;6.85;;;23.50;63.50;;;;;;5047163;28;20037;-76
2022/10/01 11:18:57;;;;;;;16.80;6.47;;;23.50;63.50;;;;;;5044855;28;20056;-75
2022/10/01 11:21:42;;;;;;;;;;;23.40;63.50;;;;;;5057104;28;20021;-75
2022/10/01 11:24:45;;;;;;;20.00;8.00;;;23.30;63.70;;;;;;5043717;28;20388;-75
2022/10/01 11:27:23;;;;;;;23.65;7.45;;;23.20;63.50;;;;;;5041621;28;20032;-74
2022/10/01 11:30:08;;;;;;;20.08;6.40;;;23.10;63.70;;;;;;5040905;28;20055;-76
2022/10/01 11:32:50;;;;;;;16.88;5.18;;;23.00;63.50;;;;;;5052660;28;20112;-78
2022/10/01 11:35:29;;;;;;;21.73;7.15;;;22.90;63.20;;;;;;5044054;28;20033;-76
2022/10/01 11:38:18;;;;;;;16.45;5.63;;;22.80;63.20;;;;;;5050556;28;20029;-75
2022/10/01 11:40:52;;;;;;;12.88;4.50;;;22.70;62.80;;;;;;5045507;28;20037;-77
2022/10/01 11:43:24;;;;;;;17.58;5.97;;;22.70;62.80;;;;;;5029917;28;20032;-75
2022/10/01 11:45:55;;;;;;;20.20;7.15;;;22.70;62.90;;;;;;5043341;28;20039;-75
2022/10/01 11:48:37;;;;;;;16.77;5.63;;;22.70;62.80;;;;;;5048579;28;20047;-76
2022/10/01 11:51:18;;;;;;;19.02;6.68;;;22.80;62.70;;;;;;5030396;28;20164;-77
2022/10/01 11:53:55;;;;;;;16.13;4.95;;;22.90;62.60;;;;;;5059096;28;20024;-79
2022/10/01 11:59:23;;;;;;;13.75;4.32;;;23.10;62.60;;;;;;5027766;28;20036;-79
2022/10/01 12:02:15;;;;;;;14.57;5.55;;;23.10;62.40;;;;;;5044428;28;20035;-76
2022/10/01 12:05:14;;;;;;;14.60;4.60;;;23.20;62.40;;;;;;5046784;28;20444;-77
2022/10/01 12:07:53;;;;;;;21.10;6.07;;;23.30;62.20;;;;;;5046473;28;20086;-91
2022/10/01 12:10:38;;;;;;;25.15;7.95;;;23.40;62.30;;;;;;5045743;28;20035;-80
2022/10/01 12:13:14;;;;;;;20.50;6.22;;;23.50;62.20;;;;;;5046954;28;20403;-78
2022/10/01 12:16:05;;;;;;;23.92;8.48;;;23.70;62.20;;;;;;5046525;28;20041;-78
2022/10/01 12:19:20;;;;;;;22.63;6.60;;;23.90;62.00;;;;;;5033059;28;20037;-78
2022/10/01 12:22:01;;;;;;;19.17;5.13;;;24.10;61.80;;;;;;5044124;28;20025;-82
2022/10/01 12:24:35;;;;;;;20.90;7.25;;;24.30;61.70;;;;;;5060120;28;20078;-81
2022/10/01 12:27:26;;;;;;;19.60;5.35;;;24.40;61.80;;;;;;5059524;28;20105;-81
2022/10/01 12:30:01;;;;;;;18.55;7.15;;;24.40;61.50;;;;;;5049843;28;20141;-86
2022/10/01 12:32:46;;;;;;;27.85;9.60;;;24.40;61.60;;;;;;5066242;28;20096;-81
2022/10/01 12:35:20;;;;;;;20.85;6.43;;;24.40;61.60;;;;;;5048774;28;20041;-78
2022/10/01 12:38:07;;;;;;;18.20;6.10;;;24.40;61.70;;;;;;5043325;28;20032;-78
2022/10/01 12:40:46;;;;;;;16.23;5.57;;;24.40;61.70;;;;;;5049076;28;20021;-78
2022/10/01 12:43:38;;;;;;;21.52;6.72;;;24.50;62.00;;;;;;5034484;28;20033;-81
2022/10/01 12:46:41;;;;;;;21.98;6.72;;;24.60;62.00;;;;;;5053300;28;20224;-81
2022/10/01 12:49:21;;;;;;;23.15;9.80;;;24.80;62.50;;;;;;5043967;28;20025;-82
2022/10/01 12:52:33;;;;;;;19.88;10.77;;;24.90;62.40;;;;;;5033904;28;20025;-81
2022/10/01 12:55:18;;;;;;;23.50;9.98;;;25.10;62.50;;;;;;5034044;28;20578;-80
2022/10/01 12:58:11;;;;;;;24.70;9.20;;;25.20;62.20;;;;;;5036364;28;20028;-81
2022/10/01 13:00:56;;;;;;;19.83;6.88;;;25.30;62.10;;;;;;5043874;28;20560;-85
2022/10/01 13:03:56;;;;;;;19.33;5.97;;;25.30;61.80;;;;;;5043642;28;20297;-92
2022/10/01 13:06:46;;;;;;;15.55;6.13;;;25.40;61.70;;;;;;5046062;28;20047;-91
2022/10/01 13:09:39;;;;;;;15.63;5.78;;;25.50;61.50;;;;;;5047071;28;20392;-82
2022/10/01 13:12:24;;;;;;;17.98;6.57;;;25.60;61.10;;;;;;5042103;28;20037;-82